MUC | München Airways

 METAR UND TAF INFORMATION

METAR FOR EPGD
ADDS - METARS form results

(1354 UTC 24 January 2019)
Data provider http://aviationweather.gov/metar/data/
 
METAR text: EPGD 241330Z 13010KT 5000 BR BKN006 M10/M11 Q1016
Conditions at: EPGD (GDANSK/REBIECHOW, PL) observed 1330 UTC 24 January 2019
Temperature: -10.0°C (14°F)
Dewpoint: -11.0°C (12°F) [RH = 92%]
Pressure (altimeter): 30.00 inches Hg (1016.0 mb)
Winds: from the SE (130 degrees) at 12 MPH (10 knots; 5.1 m/s)
Visibility: 3 miles ( 5 km)
Ceiling: 600 feet AGL
Clouds: broken clouds at 600 feet AGL
Weather: BR  (mist)

METAR text: EPGD 241300Z 12009KT 5000 BR SCT005 M10/M11 Q1016
Conditions at: EPGD (GDANSK/REBIECHOW, PL) observed 1300 UTC 24 January 2019
Temperature: -10.0°C (14°F)
Dewpoint: -11.0°C (12°F) [RH = 92%]
Pressure (altimeter): 30.00 inches Hg (1016.0 mb)
Winds: from the ESE (120 degrees) at 10 MPH (9 knots; 4.6 m/s)
Visibility: 3 miles ( 5 km)
Ceiling: at least 12,000 feet AGL
Clouds: scattered clouds at 500 feet AGL
Weather: BR  (mist)

Forecast for: EPGD (GDANSK/REBIECHOW, PL)
Text: TAF EPGD 241130Z 2412/2512 12010KT 7000 NSC
Forecast period: 1200 UTC 24 January 2019 to 1200 UTC 25 January 2019
Forecast type: FROM: standard forecast or significant change
Winds: from the ESE (120 degrees) at 12 MPH (10 knots; 5.1 m/s)
Visibility: 4 miles (7 km)
Ceiling: unknown
Clouds: missing
Weather: no significant weather forecast for this period
Text: PROB40
Forecast period: 2100 UTC 24 January 2019 to 0800 UTC 25 January 2019
Forecast type: TEMPORARY: The following changes expected for less than half the time period
Visibility: 2.49 miles (4.01 km)
Ceiling: 500 feet AGL
Clouds: broken clouds at 500 feet AGL
Weather: BR  (mist)

 FLUGHAFENKARTE

 RUNWAY INFORMATION
Runway 11 Runway length 9186 ft Runway width 148 ft
Runway elevation 450 ft Runway displaced threshold 0 ft Runway heading 113
Runway 29 Runway length 9186 ft Runway width 148 ft
Runway elevation 489 ft Runway displaced threshold 0 ft Runway heading 293

 AIRPORT FREQUENCIES
Type APP Name GDANSK APP Frequency 127.275 MHZ
Type ATIS Name ATIS Frequency 129.625 MHZ
Type TWR Name GDANSK TWR Frequency 118.1 MHZ

 AIRPORT NEAR NAVIGATION AIDS
Type NDB Name Gdansk Frequency 322 KHZ
Type VOR-DME Name Kartuzy Frequency 113200 KHZ
Type NDB Name Gdansk Frequency 383 KHZ